createdAt,value
2022-09-14T00:00:09.815Z,98225.63
2022-09-14T00:02:37.546Z,98228.69
2022-09-14T00:05:07.429Z,98236.38
2022-09-14T00:07:35.043Z,98247.47
2022-09-14T00:10:02.690Z,98250.84
2022-09-14T00:12:30.273Z,98255.34
2022-09-14T00:14:57.806Z,98275.56
2022-09-14T00:17:25.367Z,98283.09
2022-09-14T00:19:53.272Z,98274.66
2022-09-14T00:22:22.220Z,98283.94
2022-09-14T00:24:50.366Z,98304.56
2022-09-14T00:27:17.925Z,98316.06
2022-09-14T00:29:48.451Z,98320.16
2022-09-14T00:32:16.133Z,98324.84
2022-09-14T00:34:43.760Z,98317.69
2022-09-14T00:37:12.068Z,98306.00
2022-09-14T00:39:41.289Z,98284.47
2022-09-14T00:42:09.159Z,98286.34
2022-09-14T00:45:00.950Z,98282.53
2022-09-14T00:47:29.574Z,98271.41
2022-09-14T00:49:57.147Z,98256.69
2022-09-14T00:52:26.684Z,98251.66
2022-09-14T00:54:57.499Z,98254.84
2022-09-14T00:57:26.513Z,98218.97
2022-09-14T00:59:54.647Z,98211.06
2022-09-14T01:02:23.566Z,98211.50
2022-09-14T01:04:51.805Z,98217.94
2022-09-14T01:07:28.922Z,98224.97
2022-09-14T01:10:10.094Z,98225.94
2022-09-14T01:12:44.486Z,98223.53
2022-09-14T01:15:18.642Z,98212.56
2022-09-14T01:17:50.933Z,98210.44
2022-09-14T01:20:25.634Z,98212.72
2022-09-14T01:23:01.433Z,98198.00
2022-09-14T01:25:59.879Z,98191.25
2022-09-14T01:28:33.176Z,98182.03
2022-09-14T01:31:04.316Z,98168.97
2022-09-14T01:33:35.415Z,98170.03
2022-09-14T01:36:04.824Z,98161.59
2022-09-14T01:38:34.362Z,98151.63
2022-09-14T01:41:04.816Z,98148.09
2022-09-14T01:43:36.963Z,98153.16
2022-09-14T01:46:07.447Z,98145.44
2022-09-14T01:48:38.798Z,98136.59
2022-09-14T01:51:11.063Z,98138.97
2022-09-14T01:53:41.262Z,98131.81
2022-09-14T01:56:15.167Z,98130.53
2022-09-14T01:58:47.104Z,98138.66
2022-09-14T02:01:17.478Z,98142.16
2022-09-14T02:03:48.201Z,98142.53
2022-09-14T02:06:19.580Z,98139.19
2022-09-14T02:08:47.279Z,98140.34
2022-09-14T02:11:14.832Z,98133.44
2022-09-14T02:13:43.797Z,98129.84
2022-09-14T02:16:11.798Z,98122.72
2022-09-14T02:18:39.755Z,98124.41
2022-09-14T02:21:10.346Z,98125.13
2022-09-14T02:23:37.960Z,98129.94
2022-09-14T02:26:05.777Z,98135.53
2022-09-14T02:28:33.311Z,98133.84
2022-09-14T02:31:08.542Z,98138.56
2022-09-14T02:33:41.956Z,98141.09
2022-09-14T02:36:16.137Z,98148.44
2022-09-14T02:38:47.847Z,98153.00
2022-09-14T02:41:19.495Z,98148.63
2022-09-14T02:43:50.632Z,98151.28
2022-09-14T02:46:26.663Z,98141.81
2022-09-14T02:48:59.635Z,98134.13
2022-09-14T02:51:30.182Z,98137.44
2022-09-14T02:54:01.701Z,98136.47
2022-09-14T02:56:29.659Z,98131.41
2022-09-14T02:58:57.321Z,98135.19
2022-09-14T03:01:26.555Z,98141.75
2022-09-14T03:03:54.172Z,98142.59
2022-09-14T03:06:21.980Z,98142.72
2022-09-14T03:08:50.155Z,98140.34
2022-09-14T03:11:17.860Z,98143.19
2022-09-14T03:13:45.434Z,98141.09
2022-09-14T03:16:14.342Z,98135.50
2022-09-14T03:18:43.528Z,98120.22
2022-09-14T03:21:13.391Z,98118.38
2022-09-14T03:23:42.616Z,98113.88
2022-09-14T03:26:11.154Z,98120.06
2022-09-14T03:28:38.998Z,98110.63
2022-09-14T03:31:09.762Z,98112.88
2022-09-14T03:33:37.901Z,98109.34
2022-09-14T03:36:13.413Z,98104.75
2022-09-14T03:38:44.425Z,98098.97
2022-09-14T03:41:12.829Z,98078.84
2022-09-14T03:43:40.685Z,98069.63
2022-09-14T03:46:08.985Z,98054.63
2022-09-14T03:48:36.815Z,98045.47
2022-09-14T03:51:06.082Z,98052.75
2022-09-14T03:53:35.486Z,98041.78
2022-09-14T03:56:07.826Z,98053.72
2022-09-14T03:58:35.417Z,98059.91
2022-09-14T04:01:07.036Z,98060.56
2022-09-14T04:03:35.331Z,98063.66
2022-09-14T04:06:05.273Z,98060.28
2022-09-14T04:08:33.406Z,98063.97
2022-09-14T04:11:07.849Z,98070.53
2022-09-14T04:13:35.442Z,98062.81
2022-09-14T04:16:03.375Z,98073.91
2022-09-14T04:18:31.719Z,98060.59
2022-09-14T04:21:04.508Z,98069.88
2022-09-14T04:23:46.253Z,98069.69
2022-09-14T04:26:21.419Z,98064.25
2022-09-14T04:28:49.031Z,98054.53
2022-09-14T04:31:16.670Z,98069.69
2022-09-14T04:33:45.125Z,98054.84
2022-09-14T04:36:14.570Z,98055.81
2022-09-14T04:38:43.479Z,98064.81
2022-09-14T04:41:12.989Z,98064.69
2022-09-14T04:43:42.583Z,98069.69
2022-09-14T04:46:12.815Z,98076.44
2022-09-14T04:48:40.621Z,98066.31
2022-09-14T04:51:10.697Z,98051.47
2022-09-14T04:53:39.433Z,98055.94
2022-09-14T04:56:08.349Z,98051.47
2022-09-14T04:58:39.286Z,98044.59
2022-09-14T05:01:09.447Z,98047.25
2022-09-14T05:03:38.838Z,98053.03
2022-09-14T05:06:08.131Z,98050.19
2022-09-14T05:08:36.544Z,98054.69
2022-09-14T05:11:04.185Z,98061.13
2022-09-14T05:13:31.786Z,98062.69
2022-09-14T05:16:08.204Z,98054.00
2022-09-14T05:18:35.824Z,98061.59
2022-09-14T05:21:08.287Z,98063.41
2022-09-14T05:23:36.256Z,98051.06
2022-09-14T05:26:05.222Z,98046.19
2022-09-14T05:28:33.819Z,98053.84
2022-09-14T05:31:05.295Z,98041.25
2022-09-14T05:33:32.945Z,98047.13
2022-09-14T05:38:30.727Z,98024.28
2022-09-14T05:40:58.805Z,98038.47
2022-09-14T05:43:26.724Z,98036.06
2022-09-14T05:45:54.330Z,98004.06
2022-09-14T05:48:22.162Z,98033.16
2022-09-14T05:53:23.991Z,98044.91
2022-09-14T05:56:01.912Z,98031.31
2022-09-14T05:58:29.458Z,98034.00
2022-09-14T06:00:57.315Z,98028.25
2022-09-14T06:03:25.249Z,98041.13
2022-09-14T06:05:54.775Z,98029.19
2022-09-14T06:08:23.151Z,98036.38
2022-09-14T06:10:50.700Z,98035.09
2022-09-14T06:13:19.580Z,98032.88
2022-09-14T06:15:47.114Z,98025.03
2022-09-14T06:18:14.658Z,98016.06
2022-09-14T06:20:50.754Z,98017.34
2022-09-14T06:23:18.538Z,98030.53
2022-09-14T06:25:46.162Z,98040.06
2022-09-14T06:28:13.901Z,98020.28
2022-09-14T06:30:45.172Z,98039.69
2022-09-14T06:33:12.779Z,98052.72
2022-09-14T06:35:42.008Z,98045.88
2022-09-14T06:38:09.751Z,98041.13
2022-09-14T06:40:37.365Z,98042.41
2022-09-14T06:43:04.943Z,98005.06
2022-09-14T06:45:33.077Z,98040.63
2022-09-14T06:48:02.293Z,98036.97
2022-09-14T06:50:29.802Z,98030.41
2022-09-14T06:52:57.448Z,97993.63
2022-09-14T06:55:25.092Z,98011.34
2022-09-14T07:00:27.592Z,98007.41
2022-09-14T07:02:55.891Z,98007.56
2022-09-14T07:05:24.876Z,98031.69
2022-09-14T07:07:53.341Z,98022.88
2022-09-14T07:10:20.955Z,98019.94
2022-09-14T07:12:48.669Z,98018.53
2022-09-14T07:15:16.398Z,98013.06
2022-09-14T07:17:45.784Z,98017.41
2022-09-14T07:20:13.752Z,97999.72
2022-09-14T07:22:42.890Z,98004.78
2022-09-14T07:25:09.955Z,98021.34
2022-09-14T07:27:38.655Z,98025.72
2022-09-14T07:35:07.955Z,98020.50
2022-09-14T07:37:36.862Z,98017.84
2022-09-14T07:40:06.726Z,98036.66
2022-09-14T07:42:34.388Z,98034.41
2022-09-14T07:45:02.000Z,98048.28
2022-09-14T07:47:29.729Z,98032.03
2022-09-14T07:49:57.368Z,98030.19
2022-09-14T07:52:25.147Z,98031.91
2022-09-14T07:54:52.978Z,98045.38
2022-09-14T07:57:39.363Z,98048.88
2022-09-14T08:02:44.418Z,98042.00
2022-09-14T08:05:12.618Z,98052.09
2022-09-14T08:07:40.266Z,98069.50
2022-09-14T08:10:09.174Z,98061.09
2022-09-14T08:12:38.224Z,98054.34
2022-09-14T08:15:07.058Z,98053.22
2022-09-14T08:17:34.582Z,98055.75
2022-09-14T08:20:08.298Z,98065.28
2022-09-14T08:22:39.018Z,98069.34
2022-09-14T08:25:07.912Z,98061.47
2022-09-14T08:27:35.548Z,98056.69
2022-09-14T08:30:05.241Z,98068.31
2022-09-14T08:32:32.927Z,98080.38
2022-09-14T08:35:03.100Z,98071.41
2022-09-14T08:37:31.005Z,98074.75
2022-09-14T08:39:59.073Z,98083.47
2022-09-14T08:42:26.996Z,98083.88
2022-09-14T08:44:57.706Z,98075.03
2022-09-14T08:47:29.059Z,98081.91
2022-09-14T08:50:00.874Z,98080.22
2022-09-14T08:52:33.683Z,98092.59
2022-09-14T08:55:02.929Z,98101.25
2022-09-14T08:57:38.526Z,98091.16
2022-09-14T09:00:10.326Z,98088.91
2022-09-14T09:03:05.156Z,98079.06
2022-09-14T09:05:39.195Z,98064.88
2022-09-14T09:08:15.648Z,98065.56
2022-09-14T09:10:43.429Z,98053.50
2022-09-14T09:13:13.661Z,98059.66
2022-09-14T09:15:45.844Z,98079.06
2022-09-14T09:18:17.328Z,98082.72
2022-09-14T09:20:47.620Z,98074.41
2022-09-14T09:23:16.688Z,98076.25
2022-09-14T09:25:52.882Z,98070.47
2022-09-14T09:28:23.716Z,98059.44
2022-09-14T09:30:51.845Z,98064.84
2022-09-14T09:33:22.697Z,98054.94
2022-09-14T09:35:50.455Z,98062.25
2022-09-14T09:38:20.017Z,98070.41
2022-09-14T09:40:51.608Z,98058.75
2022-09-14T09:43:33.613Z,98058.66
2022-09-14T09:46:08.756Z,98047.66
2022-09-14T09:48:44.109Z,98044.94
2022-09-14T09:51:13.705Z,98043.94
2022-09-14T09:53:47.889Z,98050.81
2022-09-14T09:56:19.468Z,98039.44
2022-09-14T09:58:51.458Z,98034.19
2022-09-14T10:01:21.178Z,98033.44
2022-09-14T10:04:03.899Z,98037.50
2022-09-14T10:06:32.250Z,98030.66
2022-09-14T10:08:59.833Z,98012.19
2022-09-14T10:11:33.874Z,98003.63
2022-09-14T10:14:02.641Z,98011.19
2022-09-14T10:16:35.979Z,98008.94
2022-09-14T10:19:05.200Z,98016.94
2022-09-14T10:21:32.788Z,98007.56
2022-09-14T10:24:07.254Z,98009.84
2022-09-14T10:26:36.832Z,97995.00
2022-09-14T10:29:27.231Z,97984.06
2022-09-14T10:31:57.621Z,97988.16
2022-09-14T10:34:29.701Z,97977.91
2022-09-14T10:37:06.223Z,97981.34
2022-09-14T10:39:40.778Z,97977.94
2022-09-14T10:42:13.512Z,97968.84
2022-09-14T10:44:48.698Z,97978.25
2022-09-14T10:47:26.925Z,97972.97
2022-09-14T10:50:07.314Z,97962.13
2022-09-14T10:52:43.584Z,97965.75
2022-09-14T10:55:24.229Z,97965.25
2022-09-14T10:57:58.025Z,97960.38
2022-09-14T11:00:25.775Z,97963.91
2022-09-14T11:03:11.895Z,97968.13
2022-09-14T11:05:46.393Z,97967.94
2022-09-14T11:08:21.978Z,97965.25
2022-09-14T11:11:01.548Z,97965.09
2022-09-14T11:13:43.342Z,97973.16
2022-09-14T11:16:23.334Z,97976.59
2022-09-14T11:19:00.440Z,97968.22
2022-09-14T11:21:35.909Z,97954.66
2022-09-14T11:24:11.673Z,97974.78
2022-09-14T11:26:42.613Z,97959.91
2022-09-14T11:29:17.753Z,97958.75
2022-09-14T11:32:10.122Z,97962.78
2022-09-14T11:34:42.523Z,97956.41
2022-09-14T11:37:16.165Z,97958.56
2022-09-14T11:39:47.517Z,97971.31
2022-09-14T11:42:19.032Z,97942.78
2022-09-14T11:44:47.209Z,97939.28
2022-09-14T11:47:18.023Z,97952.53
2022-09-14T11:49:55.065Z,97947.84
2022-09-14T11:52:25.334Z,97948.69
2022-09-14T11:54:53.379Z,97940.16
2022-09-14T11:57:22.710Z,97934.28
2022-09-14T11:59:53.247Z,97937.53
2022-09-14T12:02:59.293Z,97939.72
2022-09-14T12:05:37.231Z,97933.00
2022-09-14T12:08:05.340Z,97931.50
2022-09-14T12:10:35.655Z,97931.34
2022-09-14T12:13:23.444Z,97930.50
2022-09-14T12:16:02.693Z,97917.91
2022-09-14T12:18:32.228Z,97918.91
2022-09-14T12:23:27.340Z,97907.53
2022-09-14T12:25:58.234Z,97917.75
2022-09-14T12:28:50.121Z,97907.97
2022-09-14T12:31:20.297Z,97900.16
2022-09-14T12:34:15.343Z,97894.56
2022-09-14T12:39:34.923Z,97919.44
2022-09-14T12:44:34.875Z,97901.31
2022-09-14T12:49:32.377Z,97911.50
2022-09-14T12:52:02.274Z,97913.19
2022-09-14T12:54:32.442Z,97912.19
2022-09-14T12:59:50.234Z,97916.69
2022-09-14T13:04:45.203Z,97922.22
2022-09-14T13:07:15.432Z,97911.50
2022-09-14T13:14:59.408Z,97902.63
2022-09-14T13:17:29.490Z,97906.63
2022-09-14T13:20:02.533Z,97901.94
2022-09-14T13:22:32.292Z,97901.09
2022-09-14T13:25:01.294Z,97895.06
2022-09-14T13:27:33.572Z,97896.59
2022-09-14T13:30:03.522Z,97889.53
2022-09-14T13:32:32.059Z,97886.53
2022-09-14T13:35:07.557Z,97888.91
2022-09-14T13:37:35.186Z,97881.03
2022-09-14T13:40:03.149Z,97878.84
2022-09-14T13:42:31.406Z,97873.16
2022-09-14T13:44:59.249Z,97874.31
2022-09-14T13:47:27.079Z,97870.13
2022-09-14T13:49:55.389Z,97865.09
2022-09-14T13:52:59.914Z,97870.78
2022-09-14T13:55:26.243Z,97868.59
2022-09-14T13:58:17.988Z,97858.72
2022-09-14T14:00:51.939Z,97849.00
2022-09-14T14:03:29.879Z,97848.66
2022-09-14T14:05:57.922Z,97853.66
2022-09-14T14:08:33.506Z,97856.53
2022-09-14T14:11:02.843Z,97849.31
2022-09-14T14:13:32.957Z,97841.13
2022-09-14T14:16:18.717Z,97822.69
2022-09-14T14:18:48.659Z,97859.41
2022-09-14T14:24:12.296Z,97860.06
2022-09-14T14:26:39.425Z,97859.41
2022-09-14T14:29:10.975Z,97850.03
2022-09-14T14:31:39.261Z,97847.16
2022-09-14T14:34:18.548Z,97835.78
2022-09-14T14:36:48.492Z,97825.53
2022-09-14T14:44:13.385Z,97794.03
2022-09-14T14:49:10.343Z,97778.56
2022-09-14T14:51:42.986Z,97786.63
2022-09-14T14:54:14.544Z,97779.91
2022-09-14T14:56:46.829Z,97776.66
2022-09-14T15:02:23.554Z,97788.41
2022-09-14T15:07:20.790Z,97779.16
2022-09-14T15:09:49.587Z,97780.31
2022-09-14T15:12:20.302Z,97778.34
2022-09-14T15:14:56.491Z,97773.31
2022-09-14T15:20:13.944Z,97786.25
2022-09-14T15:25:09.663Z,97792.28
2022-09-14T15:36:05.656Z,97763.84
2022-09-14T15:38:56.608Z,97754.31
2022-09-14T15:44:16.578Z,97757.81
2022-09-14T15:51:51.533Z,97740.06
2022-09-14T16:04:24.445Z,97762.88
2022-09-14T16:09:21.478Z,97791.19
2022-09-14T16:11:52.120Z,97783.13
2022-09-14T16:19:34.567Z,97789.66
2022-09-14T16:22:04.465Z,97817.97
2022-09-14T16:24:34.615Z,97814.47
2022-09-14T16:27:02.937Z,97813.78
2022-09-14T16:29:32.111Z,97832.38
2022-09-14T16:32:00.146Z,97842.75
2022-09-14T16:37:01.622Z,97797.41
2022-09-14T16:42:20.313Z,97813.44
2022-09-14T16:44:48.439Z,97806.97
2022-09-14T16:49:42.550Z,97786.28
2022-09-14T16:54:36.559Z,97812.19
2022-09-14T16:59:33.496Z,97828.00
2022-09-14T17:02:02.513Z,97829.38
2022-09-14T17:04:30.196Z,97823.56
2022-09-14T17:06:57.750Z,97818.00
2022-09-14T17:09:26.991Z,97817.50
2022-09-14T17:11:55.300Z,97819.41
2022-09-14T17:16:50.503Z,97819.69
2022-09-14T17:19:19.861Z,97815.34
2022-09-14T17:21:48.445Z,97816.50
2022-09-14T17:24:18.815Z,97824.34
2022-09-14T17:26:46.850Z,97833.50
2022-09-14T17:29:15.155Z,97837.31
2022-09-14T17:31:44.345Z,97844.19
2022-09-14T17:34:13.611Z,97841.66
2022-09-14T17:36:42.550Z,97843.09
2022-09-14T17:39:12.719Z,97832.44
2022-09-14T17:44:09.499Z,97841.41
2022-09-14T17:46:44.421Z,97803.09
2022-09-14T17:49:16.269Z,97833.47
2022-09-14T17:51:45.293Z,97840.25
2022-09-14T17:54:13.679Z,97863.38
2022-09-14T17:56:41.554Z,97862.44
2022-09-14T17:59:12.356Z,97871.19
2022-09-14T18:01:40.102Z,97876.41
2022-09-14T18:04:09.765Z,97875.47
2022-09-14T18:06:39.425Z,97882.88
2022-09-14T18:09:10.744Z,97881.72
2022-09-14T18:14:07.036Z,97872.69
2022-09-14T18:16:35.480Z,97877.06
2022-09-14T18:19:03.078Z,97876.91
2022-09-14T18:21:30.663Z,97865.13
2022-09-14T18:23:58.354Z,97868.91
2022-09-14T18:26:27.230Z,97877.22
2022-09-14T18:28:56.067Z,97884.66
2022-09-14T18:31:24.297Z,97886.06
2022-09-14T18:33:53.320Z,97891.97
2022-09-14T18:36:21.763Z,97895.47
2022-09-14T18:38:51.321Z,97888.97
2022-09-14T18:41:21.658Z,97852.28
2022-09-14T18:43:52.132Z,97887.19
2022-09-14T18:46:21.699Z,97891.81
2022-09-14T18:48:52.573Z,97902.03
2022-09-14T18:51:20.295Z,97908.50
2022-09-14T18:53:48.561Z,97908.94
2022-09-14T18:56:17.919Z,97910.06
2022-09-14T18:58:48.803Z,97913.84
2022-09-14T19:01:17.981Z,97897.44
2022-09-14T19:03:46.089Z,97896.75
2022-09-14T19:06:15.262Z,97906.00
2022-09-14T19:08:43.527Z,97893.69
2022-09-14T19:11:12.215Z,97894.53
2022-09-14T19:13:39.872Z,97891.31
2022-09-14T19:16:08.468Z,97894.66
2022-09-14T19:18:37.869Z,97894.13
2022-09-14T19:23:33.277Z,97901.56
2022-09-14T19:26:04.399Z,97907.72
2022-09-14T19:28:32.825Z,97885.56
2022-09-14T19:31:00.577Z,97910.53
2022-09-14T19:33:28.148Z,97918.81
2022-09-14T19:35:57.070Z,97899.88
2022-09-14T19:38:24.677Z,97920.34
2022-09-14T19:40:53.172Z,97921.31
2022-09-14T19:43:20.824Z,97930.31
2022-09-14T19:45:48.862Z,97935.78
2022-09-14T19:48:16.458Z,97946.84
2022-09-14T19:50:44.079Z,97947.41
2022-09-14T19:53:13.231Z,97933.81
2022-09-14T19:55:40.795Z,97946.41
2022-09-14T19:58:08.401Z,97953.44
2022-09-14T20:00:36.366Z,97955.41
2022-09-14T20:03:03.997Z,97954.84
2022-09-14T20:05:31.652Z,97955.94
2022-09-14T20:07:59.192Z,97963.66
2022-09-14T20:10:28.085Z,97969.13
2022-09-14T20:12:55.597Z,97959.16
2022-09-14T20:15:23.157Z,97957.91
2022-09-14T20:17:54.793Z,97956.06
2022-09-14T20:20:22.316Z,97953.84
2022-09-14T20:22:50.324Z,97960.00
2022-09-14T20:25:17.929Z,97961.97
2022-09-14T20:27:47.679Z,97967.03
2022-09-14T20:30:15.314Z,97961.41
2022-09-14T20:32:42.863Z,97965.47
2022-09-14T20:35:10.637Z,97966.19
2022-09-14T20:37:38.244Z,97968.84
2022-09-14T20:40:06.903Z,97968.00
2022-09-14T20:42:34.531Z,97968.28
2022-09-14T20:45:03.770Z,97963.94
2022-09-14T20:47:31.316Z,97968.72
2022-09-14T20:49:58.861Z,97977.13
2022-09-14T20:52:26.385Z,97976.69
2022-09-14T20:54:54.100Z,97972.91
2022-09-14T20:57:21.778Z,97983.13
2022-09-14T20:59:49.323Z,97970.66
2022-09-14T21:02:18.275Z,97973.31
2022-09-14T21:04:45.928Z,97965.75
2022-09-14T21:07:13.429Z,97973.34
2022-09-14T21:09:40.958Z,97975.69
2022-09-14T21:12:11.601Z,97970.22
2022-09-14T21:14:39.107Z,97964.75
2022-09-14T21:17:06.787Z,97959.69
2022-09-14T21:19:36.015Z,97963.06
2022-09-14T21:22:03.625Z,97958.72
2022-09-14T21:24:31.699Z,97952.16
2022-09-14T21:26:59.280Z,97961.13
2022-09-14T21:29:26.912Z,97951.44
2022-09-14T21:31:54.521Z,97949.75
2022-09-14T21:34:22.489Z,97955.22
2022-09-14T21:36:52.739Z,97957.75
2022-09-14T21:39:22.956Z,97958.84
2022-09-14T21:41:55.723Z,97965.16
2022-09-14T21:44:29.782Z,97956.34
2022-09-14T21:46:57.443Z,97961.66
2022-09-14T21:49:24.998Z,97957.19
2022-09-14T21:51:54.136Z,97964.19
2022-09-14T21:54:22.167Z,97962.50
2022-09-14T21:56:50.126Z,97962.50
2022-09-14T21:59:19.352Z,97960.13
2022-09-14T22:01:47.847Z,97963.34
2022-09-14T22:04:17.770Z,97956.34
2022-09-14T22:06:51.157Z,97958.16
2022-09-14T22:09:21.730Z,97951.22
2022-09-14T22:11:49.292Z,97966.72
2022-09-14T22:14:18.803Z,97965.88
2022-09-14T22:16:47.177Z,97967.97
2022-09-14T22:19:16.589Z,97957.44
2022-09-14T22:21:44.550Z,97950.44
2022-09-14T22:24:14.545Z,97963.75
2022-09-14T22:26:43.593Z,97966.56
2022-09-14T22:29:12.790Z,97964.88
2022-09-14T22:31:41.697Z,97967.81
2022-09-14T22:34:09.765Z,97958.50
2022-09-14T22:36:37.566Z,97969.34
2022-09-14T22:39:05.901Z,97965.28
2022-09-14T22:41:33.587Z,97962.91
2022-09-14T22:44:03.617Z,97976.22
2022-09-14T22:46:31.598Z,97969.34
2022-09-14T22:48:59.391Z,97975.38
2022-09-14T22:51:28.534Z,97973.69
2022-09-14T22:53:56.662Z,97981.69
2022-09-14T22:56:25.835Z,97977.34
2022-09-14T22:58:53.970Z,97979.16
2022-09-14T23:01:24.755Z,97969.09
2022-09-14T23:03:57.027Z,97971.59
2022-09-14T23:06:27.079Z,97971.88
2022-09-14T23:08:54.586Z,97972.84
2022-09-14T23:11:22.158Z,97976.78
2022-09-14T23:13:50.077Z,97972.44
2022-09-14T23:16:19.619Z,97970.75
2022-09-14T23:18:52.539Z,97969.91
2022-09-14T23:21:20.700Z,97964.19
2022-09-14T23:23:51.764Z,97961.53
2022-09-14T23:26:19.323Z,97967.56
2022-09-14T23:28:51.918Z,97965.44
2022-09-14T23:31:19.649Z,97959.84
2022-09-14T23:33:50.300Z,97958.00
2022-09-14T23:36:19.567Z,97952.81
2022-09-14T23:38:48.024Z,97957.88
2022-09-14T23:41:15.642Z,97945.38
2022-09-14T23:43:43.532Z,97952.81
2022-09-14T23:46:11.185Z,97965.16
2022-09-14T23:48:38.835Z,97958.59
2022-09-14T23:51:08.696Z,97961.25
2022-09-14T23:53:38.199Z,97963.06
2022-09-14T23:56:06.532Z,97964.19
2022-09-14T23:58:34.215Z,97960.53
